createdAt,value
2018-11-12T00:00:48.352Z,-9.43
2018-11-12T00:01:51.675Z,-9.13
2018-11-12T00:02:58.184Z,-8.84
2018-11-12T00:04:01.775Z,-8.54
2018-11-12T00:05:05.193Z,-8.27
2018-11-12T00:06:09.367Z,-8.00
2018-11-12T00:07:12.827Z,-7.74
2018-11-12T00:08:16.687Z,-7.48
2018-11-12T00:09:20.279Z,-7.22
2018-11-12T00:10:24.063Z,-7.00
2018-11-12T00:11:28.475Z,-6.75
2018-11-12T00:12:32.067Z,-6.51
2018-11-12T00:13:35.739Z,-6.28
2018-11-12T00:14:39.519Z,-6.06
2018-11-12T00:15:43.331Z,-5.84
2018-11-12T00:16:47.037Z,-5.64
2018-11-12T00:17:50.922Z,-5.45
2018-11-12T00:18:54.528Z,-5.22
2018-11-12T00:19:58.432Z,-5.01
2018-11-12T00:21:01.993Z,-4.82
2018-11-12T00:22:05.983Z,-4.61
2018-11-12T00:23:09.546Z,-4.45
2018-11-12T00:24:13.521Z,-4.26
2018-11-12T00:25:17.082Z,-4.08
2018-11-12T00:26:20.981Z,-3.91
2018-11-12T00:27:24.591Z,-3.73
2018-11-12T00:28:28.371Z,-3.57
2018-11-12T00:29:32.084Z,-3.39
2018-11-12T00:30:36.062Z,-3.24
2018-11-12T00:31:39.660Z,-3.07
2018-11-12T00:32:43.792Z,-2.89
2018-11-12T00:33:47.180Z,-2.74
2018-11-12T00:34:50.549Z,-2.58
2018-11-12T00:35:54.224Z,-2.44
2018-11-12T00:36:57.774Z,-2.29
2018-11-12T00:38:01.740Z,-2.16
2018-11-12T00:39:06.169Z,-2.01
2018-11-12T00:40:09.969Z,-1.87
2018-11-12T00:41:13.756Z,-1.73
2018-11-12T00:42:17.218Z,-1.59
2018-11-12T00:43:21.098Z,-1.46
2018-11-12T00:44:24.686Z,-1.31
2018-11-12T00:45:28.610Z,-1.20
2018-11-12T00:46:32.378Z,-1.06
2018-11-12T00:47:36.184Z,-0.94
2018-11-12T00:48:39.779Z,-0.80
2018-11-12T00:49:43.225Z,-0.67
2018-11-12T00:50:47.078Z,-0.56
2018-11-12T00:51:50.571Z,-0.42
2018-11-12T00:52:54.363Z,-0.31
2018-11-12T00:53:57.892Z,-0.18
2018-11-12T00:55:01.528Z,-0.05
2018-11-12T00:56:05.361Z,0.07
2018-11-12T00:57:09.344Z,0.18
2018-11-12T00:58:12.912Z,0.30
2018-11-12T00:59:16.706Z,0.41
2018-11-12T01:00:21.137Z,0.52
2018-11-12T01:01:24.802Z,0.64
2018-11-12T01:02:28.324Z,0.74
2018-11-12T01:03:31.918Z,0.85
2018-11-12T01:04:35.629Z,0.95
2018-11-12T01:05:39.175Z,1.07
2018-11-12T01:06:42.864Z,1.18
2018-11-12T01:07:46.428Z,1.28
2018-11-12T01:08:50.092Z,1.38
2018-11-12T01:09:53.575Z,1.49
2018-11-12T01:10:57.448Z,1.58
2018-11-12T01:12:01.026Z,1.69
2018-11-12T01:13:04.832Z,1.81
2018-11-12T01:14:07.935Z,1.90
2018-11-12T01:15:12.641Z,1.99
2018-11-12T01:16:16.324Z,2.11
2018-11-12T01:17:20.136Z,2.21
2018-11-12T01:18:23.727Z,2.31
2018-11-12T01:19:27.399Z,2.42
2018-11-12T01:20:30.979Z,2.49
2018-11-12T01:21:34.539Z,2.61
2018-11-12T01:22:38.310Z,2.71
2018-11-12T01:23:41.987Z,2.80
2018-11-12T01:24:45.801Z,2.89
2018-11-12T01:25:49.504Z,2.99
2018-11-12T01:26:53.404Z,3.09
2018-11-12T01:27:57.112Z,3.17
2018-11-12T01:29:00.883Z,3.25
2018-11-12T01:30:04.489Z,3.35
2018-11-12T01:31:08.752Z,3.44
2018-11-12T01:32:12.206Z,3.52
2018-11-12T01:33:15.291Z,3.61
2018-11-12T01:34:19.100Z,3.70
2018-11-12T01:35:22.551Z,3.79
2018-11-12T01:36:26.083Z,3.88
2018-11-12T01:37:29.793Z,3.95
2018-11-12T01:38:33.803Z,4.04
2018-11-12T01:39:38.788Z,4.11
2018-11-12T01:40:42.711Z,4.18
2018-11-12T01:41:46.443Z,4.27
2018-11-12T01:42:49.947Z,4.34
2018-11-12T01:43:53.779Z,4.43
2018-11-12T01:44:57.312Z,3.84
2018-11-12T01:46:01.104Z,2.88
2018-11-12T01:47:04.825Z,1.74
2018-11-12T01:48:08.591Z,0.52
2018-11-12T01:49:12.167Z,-0.69
2018-11-12T01:50:16.451Z,-1.82
2018-11-12T01:51:19.909Z,-2.93
2018-11-12T01:52:23.571Z,-3.95
2018-11-12T01:53:27.171Z,-4.86
2018-11-12T01:54:31.031Z,-5.72
2018-11-12T01:55:34.757Z,-6.51
2018-11-12T01:56:38.542Z,-7.24
2018-11-12T01:57:41.622Z,-7.90
2018-11-12T01:58:45.309Z,-8.52
2018-11-12T01:59:49.108Z,-9.11
2018-11-12T02:00:53.308Z,-9.66
2018-11-12T02:01:57.090Z,-10.17
2018-11-12T02:03:00.565Z,-10.63
2018-11-12T02:04:04.315Z,-11.04
2018-11-12T02:05:08.017Z,-11.46
2018-11-12T02:06:11.805Z,-11.85
2018-11-12T02:07:15.367Z,-12.20
2018-11-12T02:08:18.451Z,-12.51
2018-11-12T02:09:21.569Z,-12.81
2018-11-12T02:10:25.237Z,-13.12
2018-11-12T02:11:28.806Z,-13.36
2018-11-12T02:12:32.613Z,-13.63
2018-11-12T02:13:36.523Z,-13.86
2018-11-12T02:14:40.280Z,-14.10
2018-11-12T02:15:43.740Z,-14.32
2018-11-12T02:16:47.618Z,-14.55
2018-11-12T02:17:51.769Z,-14.78
2018-11-12T02:18:55.583Z,-14.95
2018-11-12T02:19:59.022Z,-15.11
2018-11-12T02:21:02.789Z,-15.28
2018-11-12T02:22:06.385Z,-15.45
2018-11-12T02:23:10.178Z,-15.62
2018-11-12T02:24:13.743Z,-15.77
2018-11-12T02:25:17.935Z,-15.93
2018-11-12T02:26:21.498Z,-16.09
2018-11-12T02:27:25.259Z,-16.25
2018-11-12T02:28:28.695Z,-16.40
2018-11-12T02:29:32.568Z,-16.53
2018-11-12T02:30:40.792Z,-16.68
2018-11-12T02:31:43.950Z,-16.84
2018-11-12T02:32:47.791Z,-17.00
2018-11-12T02:33:51.403Z,-17.13
2018-11-12T02:34:55.276Z,-17.25
2018-11-12T02:35:59.269Z,-17.38
2018-11-12T02:37:02.303Z,-17.49
2018-11-12T02:38:05.769Z,-17.55
2018-11-12T02:39:09.338Z,-17.63
2018-11-12T02:40:13.598Z,-17.70
2018-11-12T02:41:17.254Z,-17.79
2018-11-12T02:42:20.956Z,-17.86
2018-11-12T02:43:24.535Z,-17.93
2018-11-12T02:44:28.420Z,-18.01
2018-11-12T02:45:32.789Z,-18.09
2018-11-12T02:46:36.680Z,-18.20
2018-11-12T02:47:41.480Z,-18.28
2018-11-12T02:48:48.113Z,-18.34
2018-11-12T02:49:52.957Z,-18.42
2018-11-12T02:50:57.879Z,-18.51
2018-11-12T02:52:03.294Z,-18.58
2018-11-12T02:53:08.009Z,-18.67
2018-11-12T02:54:13.072Z,-18.75
2018-11-12T02:55:17.350Z,-18.83
2018-11-12T02:56:21.232Z,-18.90
2018-11-12T02:57:24.968Z,-18.96
2018-11-12T02:58:28.862Z,-19.03
2018-11-12T02:59:32.543Z,-19.10
2018-11-12T03:00:36.207Z,-19.17
2018-11-12T03:01:39.791Z,-19.24
2018-11-12T03:02:43.553Z,-19.28
2018-11-12T03:03:47.044Z,-19.34
2018-11-12T03:04:50.708Z,-19.40
2018-11-12T03:05:54.522Z,-19.46
2018-11-12T03:06:58.202Z,-19.52
2018-11-12T03:08:01.821Z,-19.58
2018-11-12T03:09:06.270Z,-19.64
2018-11-12T03:10:09.858Z,-19.69
2018-11-12T03:11:13.366Z,-19.72
2018-11-12T03:12:17.169Z,-19.79
2018-11-12T03:13:20.960Z,-19.84
2018-11-12T03:14:24.454Z,-19.88
2018-11-12T03:15:27.931Z,-19.94
2018-11-12T03:16:31.331Z,-19.52
2018-11-12T03:17:35.099Z,-18.78
2018-11-12T03:18:38.941Z,-18.07
2018-11-12T03:19:42.610Z,-17.40
2018-11-12T03:20:46.210Z,-16.75
2018-11-12T03:21:49.973Z,-16.17
2018-11-12T03:22:53.562Z,-15.62
2018-11-12T03:23:57.025Z,-15.11
2018-11-12T03:25:00.765Z,-14.63
2018-11-12T03:26:04.261Z,-14.16
2018-11-12T03:27:08.058Z,-13.73
2018-11-12T03:28:11.557Z,-13.30
2018-11-12T03:29:15.041Z,-12.90
2018-11-12T03:30:21.651Z,-12.52
2018-11-12T03:31:25.260Z,-12.12
2018-11-12T03:32:28.943Z,-11.77
2018-11-12T03:33:32.696Z,-11.42
2018-11-12T03:34:36.360Z,-11.09
2018-11-12T03:35:40.178Z,-10.79
2018-11-12T03:36:43.971Z,-10.47
2018-11-12T03:37:48.679Z,-10.17
2018-11-12T03:38:52.487Z,-9.86
2018-11-12T03:39:56.084Z,-9.58
2018-11-12T03:40:59.846Z,-9.33
2018-11-12T03:42:03.550Z,-9.03
2018-11-12T03:43:06.969Z,-8.76
2018-11-12T03:44:11.059Z,-8.50
2018-11-12T03:45:21.827Z,-8.25
2018-11-12T03:46:25.432Z,-7.99
2018-11-12T03:47:29.204Z,-7.76
2018-11-12T03:48:32.547Z,-7.53
2018-11-12T03:49:35.627Z,-7.31
2018-11-12T03:50:39.227Z,-7.09
2018-11-12T03:51:42.757Z,-6.86
2018-11-12T03:52:46.351Z,-6.65
2018-11-12T03:53:49.999Z,-6.44
2018-11-12T03:54:53.722Z,-6.21
2018-11-12T03:55:57.501Z,-6.01
2018-11-12T03:57:01.106Z,-5.80
2018-11-12T03:58:04.985Z,-5.61
2018-11-12T03:59:08.458Z,-5.43
2018-11-12T04:00:12.017Z,-5.24
2018-11-12T04:01:15.864Z,-5.06
2018-11-12T04:02:19.378Z,-4.89
2018-11-12T04:03:23.172Z,-4.72
2018-11-12T04:04:26.680Z,-4.54
2018-11-12T04:05:30.552Z,-4.38
2018-11-12T04:06:34.032Z,-4.21
2018-11-12T04:07:37.949Z,-4.05
2018-11-12T04:08:41.404Z,-3.87
2018-11-12T04:09:44.898Z,-3.69
2018-11-12T04:10:48.529Z,-3.55
2018-11-12T04:11:52.790Z,-3.40
2018-11-12T04:12:56.616Z,-3.24
2018-11-12T04:14:00.182Z,-3.10
2018-11-12T04:15:03.768Z,-2.96
2018-11-12T04:16:07.292Z,-2.80
2018-11-12T04:17:11.088Z,-2.66
2018-11-12T04:18:14.472Z,-2.52
2018-11-12T04:19:18.146Z,-2.39
2018-11-12T04:20:22.625Z,-2.26
2018-11-12T04:21:26.242Z,-2.11
2018-11-12T04:22:29.818Z,-1.97
2018-11-12T04:23:33.455Z,-1.85
2018-11-12T04:24:36.548Z,-1.71
2018-11-12T04:25:41.026Z,-1.58
2018-11-12T04:26:44.549Z,-1.46
2018-11-12T04:27:48.324Z,-1.32
2018-11-12T04:28:52.020Z,-1.21
2018-11-12T04:29:55.787Z,-1.08
2018-11-12T04:30:59.426Z,-0.96
2018-11-12T04:32:03.402Z,-0.85
2018-11-12T04:33:07.095Z,-0.73
2018-11-12T04:34:10.998Z,-0.62
2018-11-12T04:35:14.627Z,-0.51
2018-11-12T04:36:18.480Z,-0.39
2018-11-12T04:37:22.059Z,-0.29
2018-11-12T04:38:25.849Z,-0.16
2018-11-12T04:39:29.666Z,-0.05
2018-11-12T04:40:33.445Z,0.05
2018-11-12T04:41:36.849Z,0.16
2018-11-12T04:42:40.575Z,0.26
2018-11-12T04:43:44.422Z,0.37
2018-11-12T04:44:47.858Z,0.48
2018-11-12T04:45:51.726Z,0.58
2018-11-12T04:46:55.246Z,0.68
2018-11-12T04:47:59.020Z,0.78
2018-11-12T04:49:02.494Z,0.88
2018-11-12T04:50:06.063Z,0.98
2018-11-12T04:51:09.598Z,1.07
2018-11-12T04:52:13.203Z,1.18
2018-11-12T04:53:16.999Z,1.28
2018-11-12T04:54:20.467Z,1.37
2018-11-12T04:55:24.927Z,1.48
2018-11-12T04:56:28.739Z,1.58
2018-11-12T04:57:32.462Z,1.68
2018-11-12T04:58:36.331Z,1.76
2018-11-12T04:59:40.048Z,1.85
2018-11-12T05:00:43.848Z,1.94
2018-11-12T05:01:47.402Z,2.03
2018-11-12T05:02:51.307Z,2.12
2018-11-12T05:03:54.908Z,2.24
2018-11-12T05:04:58.793Z,2.33
2018-11-12T05:06:02.418Z,2.43
2018-11-12T05:07:06.286Z,2.52
2018-11-12T05:08:09.897Z,2.61
2018-11-12T05:09:13.899Z,2.69
2018-11-12T05:10:18.387Z,2.78
2018-11-12T05:11:22.433Z,2.87
2018-11-12T05:12:26.106Z,2.96
2018-11-12T05:13:29.791Z,3.04
2018-11-12T05:14:33.474Z,3.12
2018-11-12T05:15:37.050Z,3.21
2018-11-12T05:16:40.645Z,3.28
2018-11-12T05:17:44.355Z,3.06
2018-11-12T05:18:47.859Z,2.19
2018-11-12T05:19:51.556Z,1.13
2018-11-12T05:20:55.124Z,-0.08
2018-11-12T05:21:59.023Z,-1.30
2018-11-12T05:23:02.544Z,-2.45
2018-11-12T05:24:06.087Z,-3.54
2018-11-12T05:25:10.103Z,-4.57
2018-11-12T05:26:13.678Z,-5.51
2018-11-12T05:27:17.425Z,-6.39
2018-11-12T05:28:21.016Z,-7.19
2018-11-12T05:29:24.799Z,-7.94
2018-11-12T05:30:29.277Z,-8.64
2018-11-12T05:31:33.003Z,-9.31
2018-11-12T05:32:36.880Z,-9.87
2018-11-12T05:33:40.503Z,-10.43
2018-11-12T05:34:43.922Z,-10.93
2018-11-12T05:35:47.762Z,-11.38
2018-11-12T05:36:51.363Z,-11.83
2018-11-12T05:37:55.162Z,-12.22
2018-11-12T05:38:58.800Z,-12.59
2018-11-12T05:40:02.613Z,-12.94
2018-11-12T05:41:06.178Z,-13.28
2018-11-12T05:42:09.962Z,-13.58
2018-11-12T05:43:13.542Z,-13.87
2018-11-12T05:44:17.331Z,-14.10
2018-11-12T05:45:21.723Z,-14.36
2018-11-12T05:46:25.524Z,-14.62
2018-11-12T05:47:29.451Z,-14.83
2018-11-12T05:48:33.101Z,-15.05
2018-11-12T05:49:36.829Z,-15.24
2018-11-12T05:50:40.379Z,-15.44
2018-11-12T05:51:44.163Z,-15.62
2018-11-12T05:52:48.526Z,-15.79
2018-11-12T05:53:51.898Z,-15.97
2018-11-12T05:54:55.624Z,-16.11
2018-11-12T05:55:59.367Z,-16.28
2018-11-12T05:57:02.981Z,-16.42
2018-11-12T05:58:06.855Z,-16.59
2018-11-12T05:59:10.639Z,-16.72
2018-11-12T06:00:14.992Z,-16.88
2018-11-12T06:01:18.857Z,-17.01
2018-11-12T06:02:22.566Z,-17.13
2018-11-12T06:03:26.482Z,-17.24
2018-11-12T06:04:30.055Z,-17.27
2018-11-12T06:05:34.161Z,-17.35
2018-11-12T06:06:37.674Z,-17.43
2018-11-12T06:07:41.450Z,-17.52
2018-11-12T06:08:44.947Z,-17.62
2018-11-12T06:09:48.821Z,-17.72
2018-11-12T06:10:52.423Z,-17.80
2018-11-12T06:11:56.599Z,-17.91
2018-11-12T06:12:59.665Z,-17.99
2018-11-12T06:14:03.225Z,-18.09
2018-11-12T06:15:07.180Z,-18.17
2018-11-12T06:16:10.758Z,-18.25
2018-11-12T06:17:14.606Z,-18.35
2018-11-12T06:18:18.090Z,-18.42
2018-11-12T06:19:21.961Z,-18.49
2018-11-12T06:20:26.628Z,-18.58
2018-11-12T06:21:30.293Z,-18.66
2018-11-12T06:22:33.999Z,-18.73
2018-11-12T06:23:37.667Z,-18.80
2018-11-12T06:24:41.078Z,-18.87
2018-11-12T06:25:44.666Z,-18.94
2018-11-12T06:26:48.345Z,-19.01
2018-11-12T06:27:52.418Z,-19.08
2018-11-12T06:28:55.496Z,-19.14
2018-11-12T06:29:59.042Z,-19.21
2018-11-12T06:31:02.923Z,-19.28
2018-11-12T06:32:06.482Z,-19.32
2018-11-12T06:33:10.210Z,-19.39
2018-11-12T06:34:13.714Z,-19.44
2018-11-12T06:35:17.970Z,-19.52
2018-11-12T06:36:21.586Z,-19.58
2018-11-12T06:37:25.331Z,-19.63
2018-11-12T06:38:28.883Z,-19.69
2018-11-12T06:39:32.304Z,-19.74
2018-11-12T06:40:35.376Z,-19.57
2018-11-12T06:41:39.210Z,-18.85
2018-11-12T06:42:43.254Z,-18.12
2018-11-12T06:43:46.847Z,-17.44
2018-11-12T06:44:50.235Z,-16.81
2018-11-12T06:45:53.307Z,-16.23
2018-11-12T06:46:57.041Z,-15.66
2018-11-12T06:48:00.926Z,-15.14
2018-11-12T06:49:04.559Z,-14.64
2018-11-12T06:50:08.076Z,-14.17
2018-11-12T06:51:11.169Z,-13.72
2018-11-12T06:52:14.646Z,-13.30
2018-11-12T06:53:18.543Z,-12.89
2018-11-12T06:54:22.211Z,-12.50
2018-11-12T06:55:26.024Z,-12.14
2018-11-12T06:56:29.691Z,-11.76
2018-11-12T06:57:33.496Z,-11.43
2018-11-12T06:58:37.413Z,-11.08
2018-11-12T06:59:41.451Z,-10.77
2018-11-12T07:00:45.264Z,-10.46
2018-11-12T07:01:48.790Z,-10.16
2018-11-12T07:02:52.674Z,-9.87
2018-11-12T07:03:56.370Z,-9.58
2018-11-12T07:04:59.790Z,-9.31
2018-11-12T07:06:03.473Z,-9.04
2018-11-12T07:07:07.103Z,-8.76
2018-11-12T07:08:10.963Z,-8.51
2018-11-12T07:09:15.025Z,-8.26
2018-11-12T07:10:19.718Z,-8.00
2018-11-12T07:11:23.258Z,-7.77
2018-11-12T07:12:26.351Z,-7.53
2018-11-12T07:13:29.867Z,-7.31
2018-11-12T07:14:33.531Z,-7.08
2018-11-12T07:15:37.146Z,-6.86
2018-11-12T07:16:41.046Z,-6.64
2018-11-12T07:17:44.725Z,-6.42
2018-11-12T07:18:48.574Z,-6.22
2018-11-12T07:19:52.256Z,-6.02
2018-11-12T07:20:56.023Z,-5.83
2018-11-12T07:21:59.537Z,-5.64
2018-11-12T07:23:03.079Z,-5.45
2018-11-12T07:24:06.588Z,-5.26
2018-11-12T07:25:10.875Z,-5.08
2018-11-12T07:26:14.578Z,-4.90
2018-11-12T07:27:18.472Z,-4.72
2018-11-12T07:28:21.591Z,-4.56
2018-11-12T07:29:25.130Z,-4.41
2018-11-12T07:30:29.577Z,-4.25
2018-11-12T07:31:38.995Z,-4.08
2018-11-12T07:32:42.659Z,-3.91
2018-11-12T07:33:45.730Z,-3.76
2018-11-12T07:34:49.368Z,-3.62
2018-11-12T07:35:53.216Z,-3.48
2018-11-12T07:36:56.800Z,-3.30
2018-11-12T07:38:00.603Z,-3.17
2018-11-12T07:39:04.615Z,-3.02
2018-11-12T07:40:08.491Z,-2.87
2018-11-12T07:41:12.032Z,-2.72
2018-11-12T07:42:15.823Z,-2.58
2018-11-12T07:43:19.311Z,-2.44
2018-11-12T07:44:22.396Z,-2.32
2018-11-12T07:45:27.141Z,-2.20
2018-11-12T07:46:30.903Z,-2.05
2018-11-12T07:47:34.494Z,-1.92
2018-11-12T07:48:38.295Z,-1.80
2018-11-12T07:49:41.777Z,-1.67
2018-11-12T07:50:45.187Z,-1.55
2018-11-12T07:51:49.026Z,-1.42
2018-11-12T07:52:52.555Z,-1.29
2018-11-12T07:53:56.234Z,-1.18
2018-11-12T07:54:59.687Z,-1.05
2018-11-12T07:56:03.301Z,-0.94
2018-11-12T07:57:06.881Z,-0.82
2018-11-12T07:58:10.304Z,-0.70
2018-11-12T07:59:14.066Z,-0.59
2018-11-12T08:00:18.521Z,-0.48
2018-11-12T08:01:22.263Z,-0.36
2018-11-12T08:02:26.073Z,-0.25
2018-11-12T08:03:29.783Z,-0.13
2018-11-12T08:04:33.485Z,-0.30
2018-11-12T08:05:36.988Z,0.08
2018-11-12T08:06:40.555Z,0.18
2018-11-12T08:07:44.790Z,0.28
2018-11-12T08:08:48.696Z,0.40
2018-11-12T08:09:52.284Z,0.50
2018-11-12T08:10:56.132Z,0.59
2018-11-12T08:11:59.866Z,0.69
2018-11-12T08:13:03.754Z,0.79
2018-11-12T08:14:07.362Z,0.89
2018-11-12T08:15:12.525Z,0.97
2018-11-12T08:16:16.231Z,1.06
2018-11-12T08:17:20.006Z,1.18
2018-11-12T08:18:23.744Z,1.26
2018-11-12T08:19:27.523Z,1.36
2018-11-12T08:20:31.104Z,1.46
2018-11-12T08:21:34.726Z,1.55
2018-11-12T08:22:38.388Z,1.64
2018-11-12T08:23:41.915Z,1.75
2018-11-12T08:24:45.944Z,1.83
2018-11-12T08:25:49.323Z,1.91
2018-11-12T08:26:52.886Z,2.01
2018-11-12T08:27:56.455Z,2.11
2018-11-12T08:28:59.895Z,2.20
2018-11-12T08:30:03.765Z,2.30
2018-11-12T08:31:07.460Z,2.09
2018-11-12T08:32:11.147Z,1.21
2018-11-12T08:33:14.739Z,0.13
2018-11-12T08:34:18.743Z,-1.02
2018-11-12T08:35:22.343Z,-2.19
2018-11-12T08:36:26.210Z,-3.34
2018-11-12T08:37:30.032Z,-4.40
2018-11-12T08:38:33.694Z,-5.41
2018-11-12T08:39:37.440Z,-6.30
2018-11-12T08:40:41.263Z,-7.18
2018-11-12T08:41:44.874Z,-7.98
2018-11-12T08:42:48.784Z,-8.69
2018-11-12T08:43:52.357Z,-9.37
2018-11-12T08:44:56.419Z,-9.96
2018-11-12T08:46:00.162Z,-10.54
2018-11-12T08:47:04.024Z,-11.03
2018-11-12T08:48:07.697Z,-11.51
2018-11-12T08:49:11.719Z,-11.98
2018-11-12T08:50:16.146Z,-12.38
2018-11-12T08:51:19.694Z,-12.76
2018-11-12T08:52:23.514Z,-13.14
2018-11-12T08:53:27.068Z,-13.47
2018-11-12T08:54:30.972Z,-13.77
2018-11-12T08:55:34.719Z,-14.06
2018-11-12T08:56:38.572Z,-14.31
2018-11-12T08:57:43.488Z,-14.59
2018-11-12T08:58:46.813Z,-14.84
2018-11-12T08:59:50.379Z,-15.08
2018-11-12T09:00:54.083Z,-15.29
2018-11-12T09:01:57.825Z,-15.52
2018-11-12T09:03:01.607Z,-15.71
2018-11-12T09:04:05.502Z,-15.89
2018-11-12T09:05:10.006Z,-16.09
2018-11-12T09:06:13.721Z,-16.28
2018-11-12T09:07:17.934Z,-16.41
2018-11-12T09:08:21.326Z,-16.58
2018-11-12T09:09:25.216Z,-16.74
2018-11-12T09:10:30.787Z,-16.89
2018-11-12T09:11:34.383Z,-17.05
2018-11-12T09:12:37.946Z,-17.17
2018-11-12T09:13:42.076Z,-17.24
2018-11-12T09:14:45.339Z,-17.33
2018-11-12T09:15:49.281Z,-17.40
2018-11-12T09:16:52.980Z,-17.49
2018-11-12T09:17:56.707Z,-17.59
2018-11-12T09:19:00.287Z,-17.68
2018-11-12T09:20:04.199Z,-17.78
2018-11-12T09:21:07.805Z,-17.85
2018-11-12T09:22:11.584Z,-17.95
2018-11-12T09:23:15.291Z,-18.05
2018-11-12T09:24:19.572Z,-18.15
2018-11-12T09:25:23.958Z,-18.24
2018-11-12T09:26:27.496Z,-18.71
2018-11-12T09:27:31.324Z,-18.41
2018-11-12T09:28:34.888Z,-18.51
2018-11-12T09:29:38.854Z,-18.58
2018-11-12T09:30:43.773Z,-18.65
2018-11-12T09:31:45.992Z,-18.72
2018-11-12T09:32:49.358Z,-18.79
2018-11-12T09:33:52.949Z,-18.85
2018-11-12T09:34:56.626Z,-18.92
2018-11-12T09:36:00.231Z,-19.01
2018-11-12T09:37:03.666Z,-19.09
2018-11-12T09:38:07.492Z,-19.18
2018-11-12T09:39:11.223Z,-19.23
2018-11-12T09:40:15.098Z,-19.30
2018-11-12T09:41:18.649Z,-19.36
2018-11-12T09:42:22.442Z,-19.44
2018-11-12T09:43:26.083Z,-19.50
2018-11-12T09:44:29.783Z,-19.57
2018-11-12T09:45:33.149Z,-19.63
2018-11-12T09:46:36.735Z,-19.67
2018-11-12T09:47:40.601Z,-19.75
2018-11-12T09:48:44.285Z,-19.33
2018-11-12T09:49:48.063Z,-18.61
2018-11-12T09:50:51.514Z,-17.92
2018-11-12T09:51:55.431Z,-17.23
2018-11-12T09:52:59.781Z,-16.60
2018-11-12T09:54:03.497Z,-16.04
2018-11-12T09:55:06.978Z,-15.47
2018-11-12T09:56:10.719Z,-14.99
2018-11-12T09:57:14.203Z,-14.49
2018-11-12T09:58:18.101Z,-14.03
2018-11-12T09:59:21.652Z,-13.60
2018-11-12T10:00:25.399Z,-13.19
2018-11-12T10:01:29.267Z,-12.80
2018-11-12T10:02:33.046Z,-12.42
2018-11-12T10:03:37.400Z,-12.06
2018-11-12T10:04:41.334Z,-11.71
2018-11-12T10:05:44.945Z,-11.39
2018-11-12T10:06:49.376Z,-11.06
2018-11-12T10:07:53.673Z,-10.75
2018-11-12T10:08:57.487Z,-10.43
2018-11-12T10:10:01.471Z,-10.13
2018-11-12T10:11:05.432Z,-9.85
2018-11-12T10:12:09.151Z,-9.57
2018-11-12T10:13:12.926Z,-9.30
2018-11-12T10:14:16.192Z,-9.03
2018-11-12T10:15:19.928Z,-8.76
2018-11-12T10:16:23.479Z,-8.51
2018-11-12T10:17:27.194Z,-8.26
2018-11-12T10:18:29.023Z,-8.02
2018-11-12T10:19:32.649Z,-7.77
2018-11-12T10:20:36.503Z,-7.56
2018-11-12T10:21:40.083Z,-7.33
2018-11-12T10:22:43.880Z,-7.12
2018-11-12T10:23:47.438Z,-6.90
2018-11-12T10:24:51.169Z,-6.67
2018-11-12T10:25:54.821Z,-6.47
2018-11-12T10:26:58.293Z,-6.26
2018-11-12T10:28:01.952Z,-6.07
2018-11-12T10:29:05.026Z,-5.88
2018-11-12T10:30:08.617Z,-5.69
2018-11-12T10:31:12.208Z,-5.50
2018-11-12T10:32:15.662Z,-5.33
2018-11-12T10:33:19.073Z,-5.14
2018-11-12T10:34:22.882Z,-4.98
2018-11-12T10:35:26.452Z,-4.80
2018-11-12T10:36:30.234Z,-4.63
2018-11-12T10:37:33.874Z,-4.48
2018-11-12T10:38:37.723Z,-4.31
2018-11-12T10:39:41.355Z,-4.14
2018-11-12T10:40:45.324Z,-3.99
2018-11-12T10:41:48.829Z,-3.84
2018-11-12T10:42:52.283Z,-3.69
2018-11-12T10:43:56.023Z,-3.53
2018-11-12T10:44:59.594Z,-3.37
2018-11-12T10:46:03.406Z,-3.25
2018-11-12T10:47:07.011Z,-3.09
2018-11-12T10:48:10.851Z,-2.96
2018-11-12T10:49:14.371Z,-2.82
2018-11-12T10:50:18.150Z,-2.68
2018-11-12T10:51:21.865Z,-2.55
2018-11-12T10:52:25.635Z,-2.42
2018-11-12T10:53:28.827Z,-2.28
2018-11-12T10:54:32.468Z,-2.15
2018-11-12T10:55:35.781Z,-2.02
2018-11-12T10:56:39.423Z,-1.90
2018-11-12T10:57:43.462Z,-1.77
2018-11-12T10:58:47.176Z,-1.64
2018-11-12T10:59:50.762Z,-1.52
2018-11-12T11:00:59.041Z,-1.39
2018-11-12T11:02:07.445Z,-1.27
2018-11-12T11:03:15.714Z,-1.18
2018-11-12T11:04:24.930Z,-1.05
2018-11-12T11:05:28.430Z,-0.95
2018-11-12T11:06:32.310Z,-0.85
2018-11-12T11:07:35.907Z,-0.73
2018-11-12T11:08:39.574Z,-0.62
2018-11-12T11:09:43.272Z,-0.52
2018-11-12T11:10:46.579Z,-0.40
2018-11-12T11:11:50.147Z,-0.29
2018-11-12T11:12:53.859Z,-0.16
2018-11-12T11:13:57.762Z,-0.04
2018-11-12T11:15:01.343Z,0.06
2018-11-12T11:16:04.403Z,0.18
2018-11-12T11:17:08.230Z,0.28
2018-11-12T11:18:11.783Z,0.39
2018-11-12T11:19:15.482Z,0.49
2018-11-12T11:20:19.014Z,0.59
2018-11-12T11:21:22.147Z,0.68
2018-11-12T11:22:25.626Z,0.77
2018-11-12T11:23:29.378Z,0.88
2018-11-12T11:24:33.160Z,0.98
2018-11-12T11:25:36.945Z,1.08
2018-11-12T11:26:40.668Z,1.17
2018-11-12T11:27:44.443Z,1.25
2018-11-12T11:28:48.027Z,1.35
2018-11-12T11:29:51.706Z,1.44
2018-11-12T11:30:55.391Z,1.52
2018-11-12T11:31:59.299Z,1.61
2018-11-12T11:33:02.886Z,1.70
2018-11-12T11:34:06.377Z,1.79
2018-11-12T11:35:10.035Z,1.88
2018-11-12T11:36:13.711Z,1.97
2018-11-12T11:37:17.358Z,2.06
2018-11-12T11:38:20.738Z,1.95
2018-11-12T11:39:24.192Z,1.16
2018-11-12T11:40:28.538Z,0.14
2018-11-12T11:41:32.250Z,-1.01
2018-11-12T11:42:35.823Z,-2.16
2018-11-12T11:43:39.301Z,-3.29
2018-11-12T11:44:43.107Z,-4.37
2018-11-12T11:45:46.625Z,-5.37
2018-11-12T11:46:50.313Z,-6.30
2018-11-12T11:47:54.336Z,-7.14
2018-11-12T11:48:58.071Z,-7.96
2018-11-12T11:50:01.744Z,-8.68
2018-11-12T11:51:05.599Z,-9.35
2018-11-12T11:52:09.290Z,-9.95
2018-11-12T11:53:13.070Z,-10.52
2018-11-12T11:54:16.673Z,-11.04
2018-11-12T11:55:22.210Z,-11.50
2018-11-12T11:56:25.942Z,-11.97
2018-11-12T11:57:29.842Z,-12.38
2018-11-12T11:58:33.619Z,-12.76
2018-11-12T11:59:37.379Z,-13.14
2018-11-12T12:00:40.964Z,-13.46
2018-11-12T12:01:44.478Z,-13.79
2018-11-12T12:02:48.973Z,-14.06
2018-11-12T12:03:56.772Z,-14.33
2018-11-12T12:05:00.473Z,-14.60
2018-11-12T12:06:04.004Z,-14.85
2018-11-12T12:07:07.770Z,-15.07
2018-11-12T12:08:11.291Z,-15.30
2018-11-12T12:09:14.385Z,-15.48
2018-11-12T12:10:18.520Z,-15.67
2018-11-12T12:11:22.034Z,-15.86
2018-11-12T12:12:26.189Z,-16.02
2018-11-12T12:13:29.508Z,-16.20
2018-11-12T12:14:32.554Z,-16.36
2018-11-12T12:15:36.402Z,-16.51
2018-11-12T12:16:39.873Z,-16.66
2018-11-12T12:17:43.566Z,-16.78
2018-11-12T12:18:47.230Z,-16.92
2018-11-12T12:19:51.061Z,-17.01
2018-11-12T12:20:54.723Z,-17.09
2018-11-12T12:21:58.422Z,-17.17
2018-11-12T12:23:02.007Z,-17.28
2018-11-12T12:24:05.407Z,-17.37
2018-11-12T12:25:09.619Z,-17.46
2018-11-12T12:26:13.256Z,-17.54
2018-11-12T12:27:16.891Z,-17.64
2018-11-12T12:28:20.400Z,-17.73
2018-11-12T12:29:24.479Z,-17.81
2018-11-12T12:30:28.843Z,-17.90
2018-11-12T12:31:32.453Z,-17.99
2018-11-12T12:32:36.137Z,-18.07
2018-11-12T12:33:39.901Z,-18.16
2018-11-12T12:34:43.732Z,-18.25
2018-11-12T12:35:47.426Z,-18.34
2018-11-12T12:36:51.343Z,-18.42
2018-11-12T12:37:55.124Z,-18.53
2018-11-12T12:38:58.788Z,-18.60
2018-11-12T12:40:02.380Z,-18.67
2018-11-12T12:41:06.179Z,-18.76
2018-11-12T12:42:09.631Z,-18.83
2018-11-12T12:43:13.138Z,-18.90
2018-11-12T12:44:16.834Z,-18.97
2018-11-12T12:45:21.476Z,-19.03
2018-11-12T12:46:25.058Z,-19.09
2018-11-12T12:47:28.851Z,-19.17
2018-11-12T12:48:32.331Z,-19.22
2018-11-12T12:49:36.463Z,-19.27
2018-11-12T12:50:40.052Z,-19.35
2018-11-12T12:51:43.832Z,-19.39
2018-11-12T12:52:47.407Z,-19.46
2018-11-12T12:53:51.202Z,-19.22
2018-11-12T12:54:54.695Z,-18.48
2018-11-12T12:55:58.548Z,-17.76
2018-11-12T12:57:02.176Z,-17.10
2018-11-12T12:58:05.966Z,-16.46
2018-11-12T12:59:09.439Z,-15.88
2018-11-12T13:00:13.413Z,-15.33
2018-11-12T13:01:17.161Z,-14.81
2018-11-12T13:02:21.135Z,-14.31
2018-11-12T13:03:24.663Z,-13.85
2018-11-12T13:04:28.522Z,-13.40
2018-11-12T13:05:31.999Z,-12.97
2018-11-12T13:06:35.451Z,-12.57
2018-11-12T13:07:39.282Z,-12.19
2018-11-12T13:08:42.695Z,-11.82
2018-11-12T13:09:46.508Z,-11.47
2018-11-12T13:10:49.674Z,-11.12
2018-11-12T13:11:53.571Z,-10.80
2018-11-12T13:12:57.188Z,-10.47
2018-11-12T13:14:00.974Z,-10.16
2018-11-12T13:15:04.530Z,-9.85
2018-11-12T13:16:07.607Z,-9.56
2018-11-12T13:17:11.195Z,-9.27
2018-11-12T13:18:14.900Z,-8.99
2018-11-12T13:19:18.387Z,-8.72
2018-11-12T13:20:23.019Z,-8.46
2018-11-12T13:21:26.183Z,-8.19
2018-11-12T13:22:29.984Z,-7.95
2018-11-12T13:23:33.566Z,-7.70
2018-11-12T13:24:37.365Z,-7.47
2018-11-12T13:25:41.052Z,-7.23
2018-11-12T13:26:44.856Z,-7.00
2018-11-12T13:27:48.910Z,-6.79
2018-11-12T13:28:52.571Z,-6.57
2018-11-12T13:29:56.151Z,-6.35
2018-11-12T13:30:59.938Z,-6.13
2018-11-12T13:32:03.011Z,-5.94
2018-11-12T13:33:06.523Z,-5.74
2018-11-12T13:34:10.302Z,-5.54
2018-11-12T13:35:14.905Z,-5.34